Airfield :







YOU CAN JOIN US ON...

 
LOGIN :

Register | Disclaimer

   EN    FR    IT 

 









Legend :    VFR   Marginal VFR   IFR   Intensive IFR   Very Intensive IFR
Visi :
Ceiling :
>= 8 km
>= 3000ft
5 to 8 km
1000 to 3000 ft
1500m to 5 km
500 to 1000 ft
800 to 1500m
200 to 500 ft
< 800m
< 200 ft
Symbols :   Thunderstorms  Fog  Heavy snow  Heavy precipitations  Wind > 20 kt






- Airport Elevation : 534 ft
- IATA code : PQI


KPQI - Northern Maine Regional Arpt At Presque Isle

CURRENT METAR :
  • 071256Z AUTO 00000KT 10SM CLR M14/M16 A3011 RMK AO2 SLP236 T11441161

EXPIRED METARs :
  • 071156Z AUTO 00000KT 10SM CLR M16/M18 A3008 RMK AO2 SLP226 T11611183 11128 21167 52020
  • 071056Z AUTO 29004KT 10SM CLR M14/M16 A3006 RMK AO2 SLP218 T11441156

TAF KPQI
Valid from the 07 at 12:00 until the 08 at 12:00 UTC


071123Z 0712/0812 29008KT P6SM SCT040



MET'MAP, your aeronautical weather chart ! - Copyright ORBIFLY December 2007 - Disclaimer

ORBIFLY MET'MAP TEAM :

Programming & Development : Alexandra Zaïnal
Concept & original design : Baudouin d'Aumeries
Assistance for programming : Marc-Olivier Méhu
Technical & hardware support : Manuel Goepfert

Contact : metmap@orbifly.com




SOURCES & CREDITS :

   NOAA